createdAt,value
2023-02-07T00:01:12.717Z,29.77
2023-02-07T00:03:40.865Z,28.80
2023-02-07T00:06:09.563Z,28.80
2023-02-07T00:08:37.755Z,27.93
2023-02-07T00:11:06.849Z,30.07
2023-02-07T00:13:35.632Z,26.67
2023-02-07T00:16:05.552Z,26.90
2023-02-07T00:18:33.772Z,26.90
2023-02-07T00:21:02.179Z,24.80
2023-02-07T00:23:30.306Z,24.63
2023-02-07T00:25:58.648Z,24.60
2023-02-07T00:28:26.901Z,23.77
2023-02-07T00:31:16.348Z,24.70
2023-02-07T00:33:44.947Z,23.13
2023-02-07T00:36:14.396Z,22.33
2023-02-07T00:38:42.476Z,22.77
2023-02-07T00:41:10.980Z,22.53
2023-02-07T00:43:39.019Z,23.30
2023-02-07T00:46:07.300Z,21.63
2023-02-07T00:48:36.785Z,20.73
2023-02-07T00:51:04.974Z,21.17
2023-02-07T00:53:33.030Z,21.20
2023-02-07T00:56:01.075Z,20.40
2023-02-07T00:58:29.176Z,21.63
2023-02-07T01:01:00.084Z,20.20
2023-02-07T01:03:28.236Z,20.33
2023-02-07T01:05:57.686Z,20.27
2023-02-07T01:08:25.727Z,19.53
2023-02-07T01:10:53.816Z,20.57
2023-02-07T01:13:21.871Z,19.30
2023-02-07T01:15:50.126Z,18.27
2023-02-07T01:18:18.219Z,20.10
2023-02-07T01:20:46.255Z,18.60
2023-02-07T01:23:15.968Z,19.37
2023-02-07T01:25:44.881Z,17.70
2023-02-07T01:28:13.116Z,17.73
2023-02-07T01:30:41.273Z,17.53
2023-02-07T01:33:09.468Z,18.90
2023-02-07T01:35:38.363Z,17.70
2023-02-07T01:38:07.980Z,17.33
2023-02-07T01:40:38.967Z,17.67
2023-02-07T01:43:07.039Z,17.87
2023-02-07T01:45:36.323Z,16.97
2023-02-07T01:48:07.884Z,18.03
2023-02-07T01:50:35.926Z,20.50
2023-02-07T01:53:04.012Z,33.20
2023-02-07T01:55:33.852Z,60.03
2023-02-07T01:58:03.349Z,106.20
2023-02-07T02:00:31.439Z,47.93
2023-02-07T02:02:59.445Z,39.03
2023-02-07T02:05:27.462Z,51.80
2023-02-07T02:07:55.532Z,56.40
2023-02-07T02:10:25.269Z,53.73
2023-02-07T02:13:03.694Z,49.20
2023-02-07T02:15:38.128Z,36.40
2023-02-07T02:18:24.845Z,56.43
2023-02-07T02:21:32.541Z,54.77
2023-02-07T02:24:16.281Z,45.57
2023-02-07T02:26:55.111Z,44.20
2023-02-07T02:29:58.710Z,50.43
2023-02-07T02:33:08.530Z,47.30
2023-02-07T02:35:41.180Z,48.33
2023-02-07T02:38:14.418Z,99.63
2023-02-07T02:40:47.325Z,52.73
2023-02-07T02:43:18.118Z,119.20
2023-02-07T02:45:47.608Z,62.27
2023-02-07T02:48:15.663Z,70.63
2023-02-07T02:50:47.824Z,65.53
2023-02-07T02:53:16.114Z,71.57
2023-02-07T02:55:55.821Z,149.33
2023-02-07T02:58:27.533Z,100.93
2023-02-07T03:01:06.353Z,73.60
2023-02-07T03:03:45.919Z,58.83
2023-02-07T03:06:21.591Z,85.10
2023-02-07T03:08:54.137Z,68.93
2023-02-07T03:11:23.153Z,66.73
2023-02-07T03:13:57.208Z,112.33
2023-02-07T03:16:25.948Z,65.13
2023-02-07T03:18:58.270Z,72.13
2023-02-07T03:21:28.464Z,107.40
2023-02-07T03:23:57.164Z,165.20
2023-02-07T03:26:25.309Z,216.93
2023-02-07T03:28:53.339Z,104.57
2023-02-07T03:31:22.158Z,176.87
2023-02-07T03:33:55.797Z,118.03
2023-02-07T03:36:25.121Z,83.00
2023-02-07T03:38:54.585Z,95.93
2023-02-07T03:41:25.617Z,84.40
2023-02-07T03:43:53.665Z,89.90
2023-02-07T03:46:21.738Z,77.50
2023-02-07T03:48:49.805Z,140.87
2023-02-07T03:51:17.858Z,81.97
2023-02-07T03:53:45.869Z,111.00
2023-02-07T03:56:15.290Z,87.43
2023-02-07T03:58:43.344Z,190.53
2023-02-07T04:01:11.556Z,79.90
2023-02-07T04:03:39.631Z,139.63
2023-02-07T04:06:07.897Z,96.77
2023-02-07T04:08:35.913Z,89.57
2023-02-07T04:11:04.748Z,75.03
2023-02-07T04:13:34.186Z,98.67
2023-02-07T04:16:11.888Z,116.47
2023-02-07T04:18:41.791Z,64.30
2023-02-07T04:21:09.985Z,67.67
2023-02-07T04:23:38.055Z,59.20
2023-02-07T04:26:06.336Z,60.53
2023-02-07T04:28:35.772Z,56.93
2023-02-07T04:31:03.849Z,53.40
2023-02-07T04:33:31.878Z,50.23
2023-02-07T04:36:00.424Z,50.93
2023-02-07T04:38:28.981Z,47.90
2023-02-07T04:40:59.630Z,46.57
2023-02-07T04:43:29.896Z,47.83
2023-02-07T04:45:59.375Z,44.83
2023-02-07T04:48:27.491Z,43.20
2023-02-07T04:50:55.563Z,41.10
2023-02-07T04:53:23.669Z,41.00
2023-02-07T04:55:52.307Z,40.57
2023-02-07T04:58:20.415Z,39.97
2023-02-07T05:00:48.621Z,36.50
2023-02-07T05:03:18.051Z,39.43
2023-02-07T05:05:46.528Z,35.93
2023-02-07T05:08:17.886Z,36.17
2023-02-07T05:10:45.955Z,36.37
2023-02-07T05:13:13.996Z,34.70
2023-02-07T05:15:42.078Z,33.83
2023-02-07T05:18:10.104Z,33.20
2023-02-07T05:20:39.524Z,33.47
2023-02-07T05:23:07.586Z,31.67
2023-02-07T05:25:35.769Z,31.43
2023-02-07T05:28:03.947Z,31.57
2023-02-07T05:30:35.979Z,29.13
2023-02-07T05:33:06.040Z,27.20
2023-02-07T05:35:34.423Z,28.07
2023-02-07T05:38:04.654Z,27.37
2023-02-07T05:40:32.733Z,27.60
2023-02-07T05:43:00.775Z,26.47
2023-02-07T05:45:28.839Z,26.40
2023-02-07T05:47:59.901Z,26.20
2023-02-07T05:50:28.112Z,25.50
2023-02-07T05:52:56.174Z,24.50
2023-02-07T05:55:25.607Z,23.87
2023-02-07T05:57:53.697Z,23.50
2023-02-07T06:00:21.933Z,23.10
2023-02-07T06:02:50.046Z,22.23
2023-02-07T06:05:20.255Z,21.03
2023-02-07T06:07:48.344Z,21.67
2023-02-07T06:10:16.632Z,20.50
2023-02-07T06:12:46.035Z,20.20
2023-02-07T06:15:14.056Z,20.67
2023-02-07T06:17:42.101Z,18.87
2023-02-07T06:20:11.366Z,18.63
2023-02-07T06:22:39.397Z,18.37
2023-02-07T06:25:11.717Z,18.63
2023-02-07T06:27:40.902Z,18.50
2023-02-07T06:30:11.804Z,17.50
2023-02-07T06:32:39.889Z,17.97
2023-02-07T06:35:08.830Z,17.07
2023-02-07T06:37:36.897Z,16.80
2023-02-07T06:40:05.574Z,16.27
2023-02-07T06:42:33.616Z,16.97
2023-02-07T06:45:01.656Z,16.20
2023-02-07T06:47:31.086Z,15.93
2023-02-07T06:49:59.126Z,15.87
2023-02-07T06:52:27.226Z,15.13
2023-02-07T06:54:55.342Z,14.10
2023-02-07T06:57:23.462Z,14.37
2023-02-07T06:59:51.534Z,13.30
2023-02-07T07:02:19.542Z,14.10
2023-02-07T07:04:50.245Z,13.73
2023-02-07T07:07:18.299Z,13.07
2023-02-07T07:09:46.312Z,13.13
2023-02-07T07:12:17.977Z,13.93
2023-02-07T07:14:46.025Z,12.40
2023-02-07T07:17:15.339Z,12.40
2023-02-07T07:19:43.385Z,12.67
2023-02-07T07:22:12.795Z,12.10
2023-02-07T07:24:40.880Z,12.60
2023-02-07T07:27:08.898Z,11.20
2023-02-07T07:29:36.953Z,12.00
2023-02-07T07:32:04.998Z,11.37
2023-02-07T07:34:36.051Z,10.70
2023-02-07T07:37:04.112Z,10.17
2023-02-07T07:39:33.619Z,10.70
2023-02-07T07:42:01.723Z,10.47
2023-02-07T07:44:29.730Z,10.73
2023-02-07T07:46:57.876Z,10.80
2023-02-07T07:49:25.965Z,9.87
2023-02-07T07:51:54.196Z,9.77
2023-02-07T07:54:22.322Z,10.07
2023-02-07T07:56:51.791Z,10.07
2023-02-07T07:59:23.814Z,9.70
2023-02-07T08:01:52.348Z,9.43
2023-02-07T08:04:20.385Z,9.27
2023-02-07T08:06:48.795Z,9.27
2023-02-07T08:09:16.857Z,9.23
2023-02-07T08:11:44.911Z,8.70
2023-02-07T08:14:14.286Z,8.50
2023-02-07T08:16:42.373Z,8.40
2023-02-07T08:19:10.453Z,7.87
2023-02-07T08:21:38.504Z,8.50
2023-02-07T08:24:12.024Z,9.10
2023-02-07T08:26:40.085Z,8.37
2023-02-07T08:29:08.137Z,8.07
2023-02-07T08:31:37.635Z,8.23
2023-02-07T08:34:06.055Z,7.90
2023-02-07T08:36:34.089Z,7.90
2023-02-07T08:39:06.825Z,7.80
2023-02-07T08:41:34.896Z,8.30
2023-02-07T08:44:12.072Z,7.97
2023-02-07T08:46:41.482Z,7.90
2023-02-07T08:49:09.571Z,7.57
2023-02-07T08:51:37.627Z,8.20
2023-02-07T08:54:06.105Z,7.40
2023-02-07T08:56:34.163Z,8.33
2023-02-07T08:59:02.223Z,7.50
2023-02-07T09:01:30.335Z,7.00
2023-02-07T09:03:59.802Z,7.80
2023-02-07T09:06:27.850Z,7.37
2023-02-07T09:08:55.881Z,7.17
2023-02-07T09:11:24.041Z,7.70
2023-02-07T09:13:52.147Z,8.03
2023-02-07T09:16:20.236Z,7.17
2023-02-07T09:18:49.727Z,6.90
2023-02-07T09:21:19.872Z,7.03
2023-02-07T09:23:47.958Z,7.73
2023-02-07T09:26:19.211Z,7.60
2023-02-07T09:28:47.251Z,6.77
2023-02-07T09:31:16.432Z,7.60
2023-02-07T09:33:44.588Z,7.13
2023-02-07T09:36:20.802Z,6.87
2023-02-07T09:38:48.906Z,6.77
2023-02-07T09:41:20.881Z,6.93
2023-02-07T09:43:58.403Z,7.20
2023-02-07T09:46:27.220Z,7.10
2023-02-07T09:48:56.408Z,6.73
2023-02-07T09:51:25.825Z,6.93
2023-02-07T09:53:56.184Z,7.70
2023-02-07T09:56:25.564Z,7.77
2023-02-07T09:58:54.734Z,6.40
2023-02-07T10:01:25.518Z,6.53
2023-02-07T10:03:57.176Z,7.70
2023-02-07T10:06:28.178Z,6.27
2023-02-07T10:08:56.743Z,7.50
2023-02-07T10:11:30.124Z,6.77
2023-02-07T10:14:05.660Z,6.50
2023-02-07T10:16:50.560Z,6.13
2023-02-07T10:19:23.912Z,6.87
2023-02-07T10:21:57.416Z,6.77
2023-02-07T10:24:36.642Z,6.70
2023-02-07T10:27:06.934Z,6.20
2023-02-07T10:29:49.108Z,6.57
2023-02-07T10:32:20.265Z,6.00
2023-02-07T10:34:50.113Z,6.83
2023-02-07T10:37:21.836Z,6.33
2023-02-07T10:39:53.519Z,6.50
2023-02-07T10:42:22.958Z,6.93
2023-02-07T10:44:51.015Z,5.93
2023-02-07T10:47:26.190Z,6.50
2023-02-07T10:49:55.495Z,6.30
2023-02-07T10:52:35.644Z,5.73
2023-02-07T10:55:04.799Z,5.97
2023-02-07T10:57:32.900Z,5.80
2023-02-07T11:00:03.145Z,5.70
2023-02-07T11:02:52.370Z,6.10
2023-02-07T11:05:54.164Z,5.53
2023-02-07T11:08:25.238Z,6.30
2023-02-07T11:10:54.199Z,5.50
2023-02-07T11:13:23.589Z,6.07
2023-02-07T11:15:56.858Z,6.00
2023-02-07T11:18:28.363Z,5.73
2023-02-07T11:20:56.460Z,6.00
2023-02-07T11:23:25.900Z,5.77
2023-02-07T11:25:55.551Z,6.30
2023-02-07T11:28:25.498Z,5.70
2023-02-07T11:30:55.913Z,5.93
2023-02-07T11:33:26.044Z,5.90
2023-02-07T11:36:13.698Z,5.60
2023-02-07T11:38:47.893Z,5.43
2023-02-07T11:41:20.838Z,5.60
2023-02-07T11:43:59.641Z,5.80
2023-02-07T11:46:36.112Z,5.87
2023-02-07T11:49:04.423Z,5.30
2023-02-07T11:51:33.577Z,5.63
2023-02-07T11:54:04.095Z,6.00
2023-02-07T11:56:34.247Z,5.77
2023-02-07T11:59:04.945Z,4.83
2023-02-07T12:01:33.689Z,5.07
2023-02-07T12:04:10.409Z,5.43
2023-02-07T12:06:40.530Z,4.93
2023-02-07T12:09:18.688Z,4.50
2023-02-07T12:11:46.736Z,5.17
2023-02-07T12:14:27.231Z,5.00
2023-02-07T12:16:56.725Z,5.73
2023-02-07T12:19:25.864Z,5.30
2023-02-07T12:21:58.352Z,5.00
2023-02-07T12:24:30.795Z,5.00
2023-02-07T12:27:01.302Z,4.83
2023-02-07T12:29:34.814Z,5.33
2023-02-07T12:32:08.906Z,5.00
2023-02-07T12:34:39.652Z,5.20
2023-02-07T12:37:14.524Z,5.10
2023-02-07T12:39:47.174Z,5.10
2023-02-07T12:42:23.788Z,5.10
2023-02-07T12:44:53.399Z,5.10
2023-02-07T12:47:24.386Z,4.93
2023-02-07T12:50:03.753Z,4.43
2023-02-07T12:52:38.324Z,4.63
2023-02-07T12:55:16.097Z,4.50
2023-02-07T12:57:47.141Z,4.70
2023-02-07T13:00:17.747Z,4.70
2023-02-07T13:02:58.897Z,4.60
2023-02-07T13:05:59.418Z,4.67
2023-02-07T13:08:32.352Z,4.37
2023-02-07T13:11:08.260Z,4.60
2023-02-07T13:13:39.142Z,4.70
2023-02-07T13:16:14.415Z,4.80
2023-02-07T13:18:44.681Z,4.07
2023-02-07T13:21:18.960Z,4.30
2023-02-07T13:23:48.438Z,4.60
2023-02-07T13:26:21.083Z,4.33
2023-02-07T13:28:51.558Z,4.43
2023-02-07T13:31:20.965Z,4.20
2023-02-07T13:33:49.595Z,4.33
2023-02-07T13:36:20.728Z,4.60
2023-02-07T13:38:59.959Z,4.77
2023-02-07T13:41:34.021Z,4.30
2023-02-07T13:44:10.264Z,4.70
2023-02-07T13:46:56.850Z,4.70
2023-02-07T13:49:30.307Z,4.10
2023-02-07T13:52:02.198Z,4.30
2023-02-07T13:54:35.959Z,4.23
2023-02-07T13:57:22.855Z,4.37
2023-02-07T14:00:07.387Z,5.47
2023-02-07T14:02:40.772Z,4.97
2023-02-07T14:05:10.380Z,4.90
2023-02-07T14:07:39.427Z,5.13
2023-02-07T14:10:09.022Z,5.03
2023-02-07T14:12:43.866Z,5.13
2023-02-07T14:15:55.342Z,5.13
2023-02-07T14:18:43.262Z,5.87
2023-02-07T14:21:29.029Z,4.70
2023-02-07T14:24:05.819Z,4.70
2023-02-07T14:27:02.245Z,5.10
2023-02-07T14:29:55.135Z,4.60
2023-02-07T14:32:34.320Z,4.67
2023-02-07T14:35:04.914Z,4.63
2023-02-07T14:37:46.312Z,4.93
2023-02-07T14:40:20.618Z,5.13
2023-02-07T14:42:56.788Z,5.00
2023-02-07T14:45:26.383Z,5.17
2023-02-07T14:47:54.387Z,5.10
2023-02-07T14:50:24.781Z,5.30
2023-02-07T14:52:52.800Z,5.00
2023-02-07T14:55:22.866Z,4.60
2023-02-07T14:57:52.163Z,4.83
2023-02-07T15:00:31.371Z,4.80
2023-02-07T15:03:02.890Z,4.60
2023-02-07T15:05:32.891Z,4.60
2023-02-07T15:08:09.193Z,5.53
2023-02-07T15:10:39.093Z,4.10
2023-02-07T15:13:21.983Z,4.70
2023-02-07T15:15:53.404Z,4.50
2023-02-07T15:18:22.130Z,4.60
2023-02-07T15:20:51.182Z,4.63
2023-02-07T15:23:19.223Z,4.80
2023-02-07T15:25:47.392Z,4.70
2023-02-07T15:28:27.479Z,5.23
2023-02-07T15:30:58.717Z,4.67
2023-02-07T15:33:27.834Z,4.50
2023-02-07T15:35:55.858Z,4.97
2023-02-07T15:38:24.651Z,4.63
2023-02-07T15:40:53.134Z,4.50
2023-02-07T15:43:26.498Z,4.33
2023-02-07T15:46:03.883Z,4.13
2023-02-07T15:48:32.016Z,4.10
2023-02-07T15:51:01.030Z,4.43
2023-02-07T15:53:29.946Z,4.50
2023-02-07T15:55:59.305Z,4.53
2023-02-07T15:58:28.940Z,4.30
2023-02-07T16:01:02.848Z,4.33
2023-02-07T16:03:37.068Z,3.93
2023-02-07T16:06:17.864Z,4.73
2023-02-07T16:08:46.432Z,4.60
2023-02-07T16:11:24.818Z,5.13
2023-02-07T16:13:54.274Z,4.50
2023-02-07T16:16:26.597Z,4.10
2023-02-07T16:19:04.667Z,4.00
2023-02-07T16:21:33.583Z,4.57
2023-02-07T16:24:06.813Z,4.27
2023-02-07T16:26:34.933Z,4.30
2023-02-07T16:29:02.993Z,4.00
2023-02-07T16:31:32.883Z,4.10
2023-02-07T16:34:01.066Z,4.20
2023-02-07T16:36:29.780Z,4.23
2023-02-07T16:38:57.958Z,3.77
2023-02-07T16:41:31.330Z,4.23
2023-02-07T16:43:59.961Z,3.80
2023-02-07T16:46:28.063Z,4.10
2023-02-07T16:48:57.453Z,4.17
2023-02-07T16:51:25.478Z,3.87
2023-02-07T16:53:53.520Z,4.20
2023-02-07T16:56:24.652Z,4.27
2023-02-07T16:58:52.693Z,3.83
2023-02-07T17:01:21.901Z,4.13
2023-02-07T17:03:50.062Z,4.20
2023-02-07T17:06:20.490Z,3.67
2023-02-07T17:08:48.693Z,4.07
2023-02-07T17:11:20.712Z,4.10
2023-02-07T17:13:48.773Z,3.97
2023-02-07T17:16:16.823Z,4.63
2023-02-07T17:18:44.920Z,4.37
2023-02-07T17:21:14.608Z,4.30
2023-02-07T17:23:49.852Z,3.80
2023-02-07T17:26:22.511Z,3.90
2023-02-07T17:28:51.417Z,4.40
2023-02-07T17:31:19.585Z,4.47
2023-02-07T17:33:47.671Z,4.30
2023-02-07T17:36:16.417Z,4.50
2023-02-07T17:38:44.500Z,3.83
2023-02-07T17:41:21.439Z,4.17
2023-02-07T17:43:49.499Z,4.33
2023-02-07T17:46:18.846Z,3.50
2023-02-07T17:48:47.643Z,4.20
2023-02-07T17:51:15.725Z,4.27
2023-02-07T17:53:43.960Z,4.33
2023-02-07T17:56:13.926Z,3.63
2023-02-07T17:58:43.318Z,4.07
2023-02-07T18:01:11.376Z,4.10
2023-02-07T18:03:39.477Z,3.93
2023-02-07T18:06:08.001Z,4.20
2023-02-07T18:08:36.045Z,4.60
2023-02-07T18:11:07.283Z,4.07
2023-02-07T18:13:35.459Z,4.30
2023-02-07T18:16:05.206Z,4.77
2023-02-07T18:18:33.249Z,3.77
2023-02-07T18:21:01.281Z,3.53
2023-02-07T18:23:29.423Z,3.87
2023-02-07T18:25:57.450Z,4.50
2023-02-07T18:28:25.518Z,4.37
2023-02-07T18:30:53.575Z,4.53
2023-02-07T18:33:23.028Z,4.90
2023-02-07T18:35:59.028Z,4.40
2023-02-07T18:38:27.095Z,4.20
2023-02-07T18:40:55.130Z,4.37
2023-02-07T18:43:23.186Z,4.23
2023-02-07T18:45:51.244Z,4.43
2023-02-07T18:48:19.295Z,4.27
2023-02-07T18:50:48.722Z,4.10
2023-02-07T18:53:23.013Z,3.63
2023-02-07T18:55:51.039Z,4.80
2023-02-07T18:58:19.074Z,4.60
2023-02-07T19:00:48.529Z,4.60
2023-02-07T19:03:16.581Z,3.90
2023-02-07T19:05:45.740Z,4.80
2023-02-07T19:08:15.157Z,4.57
2023-02-07T19:10:43.180Z,4.27
2023-02-07T19:13:11.236Z,4.40
2023-02-07T19:15:39.323Z,4.23
2023-02-07T19:18:07.434Z,4.97
2023-02-07T19:20:35.478Z,4.30
2023-02-07T19:23:07.334Z,4.13
2023-02-07T19:25:36.764Z,4.70
2023-02-07T19:28:05.141Z,4.20
2023-02-07T19:30:40.656Z,4.40
2023-02-07T19:33:08.938Z,3.87
2023-02-07T19:35:37.632Z,4.97
2023-02-07T19:38:05.645Z,4.20
2023-02-07T19:40:33.711Z,4.73
2023-02-07T19:43:03.126Z,4.43
2023-02-07T19:45:31.158Z,4.70
2023-02-07T19:47:59.166Z,4.10
2023-02-07T19:50:27.301Z,4.33
2023-02-07T19:52:55.376Z,5.20
2023-02-07T19:55:23.476Z,4.40
2023-02-07T19:57:51.528Z,4.83
2023-02-07T20:00:21.154Z,4.57
2023-02-07T20:02:49.186Z,5.07
2023-02-07T20:05:17.290Z,5.03
2023-02-07T20:07:45.303Z,4.30
2023-02-07T20:10:13.349Z,5.00
2023-02-07T20:12:41.413Z,4.97
2023-02-07T20:15:10.536Z,5.13
2023-02-07T20:17:40.268Z,4.83
2023-02-07T20:20:09.038Z,4.80
2023-02-07T20:22:37.130Z,4.90
2023-02-07T20:25:05.425Z,5.33
2023-02-07T20:27:33.583Z,4.70
2023-02-07T20:30:01.748Z,5.10
2023-02-07T20:32:29.809Z,5.33
2023-02-07T20:34:59.236Z,5.90
2023-02-07T20:37:27.358Z,5.50
2023-02-07T20:39:55.386Z,5.90
2023-02-07T20:42:23.444Z,5.17
2023-02-07T20:44:51.531Z,4.90
2023-02-07T20:47:24.638Z,5.13
2023-02-07T20:49:52.801Z,5.30
2023-02-07T20:52:22.210Z,5.23
2023-02-07T20:54:50.392Z,6.33
2023-02-07T20:57:18.424Z,5.50
2023-02-07T20:59:46.493Z,6.10
2023-02-07T21:02:14.549Z,5.23
2023-02-07T21:04:43.031Z,5.53
2023-02-07T21:07:11.150Z,6.10
2023-02-07T21:09:41.065Z,5.50
2023-02-07T21:12:09.610Z,5.50
2023-02-07T21:14:37.654Z,5.80
2023-02-07T21:17:06.739Z,5.30
2023-02-07T21:19:35.167Z,5.73
2023-02-07T21:22:03.176Z,5.40
2023-02-07T21:24:31.255Z,5.70
2023-02-07T21:27:03.089Z,5.70
2023-02-07T21:29:31.149Z,5.60
2023-02-07T21:31:59.249Z,5.20
2023-02-07T21:34:27.318Z,5.30
2023-02-07T21:37:00.735Z,5.63
2023-02-07T21:39:28.755Z,5.90
2023-02-07T21:41:56.954Z,6.47
2023-02-07T21:44:32.093Z,5.90
2023-02-07T21:47:00.125Z,6.60
2023-02-07T21:49:28.164Z,6.10
2023-02-07T21:51:56.186Z,6.87
2023-02-07T21:54:24.215Z,6.40
2023-02-07T21:56:52.283Z,6.33
2023-02-07T21:59:21.242Z,6.07
2023-02-07T22:01:50.676Z,6.20
2023-02-07T22:04:18.726Z,5.80
2023-02-07T22:06:49.436Z,5.67
2023-02-07T22:09:18.413Z,6.03
2023-02-07T22:11:46.463Z,6.07
2023-02-07T22:14:14.637Z,5.87
2023-02-07T22:16:42.826Z,6.63
2023-02-07T22:19:43.376Z,6.30
2023-02-07T22:22:11.431Z,6.20
2023-02-07T22:24:39.505Z,5.97
2023-02-07T22:27:07.552Z,6.53
2023-02-07T22:29:35.588Z,6.70
2023-02-07T22:32:03.640Z,5.83
2023-02-07T22:34:31.703Z,6.57
2023-02-07T22:37:01.102Z,6.90
2023-02-07T22:39:29.143Z,6.50
2023-02-07T22:41:57.843Z,6.40
2023-02-07T22:44:25.997Z,7.10
2023-02-07T22:46:54.045Z,6.30
2023-02-07T22:49:22.142Z,6.60
2023-02-07T22:51:50.556Z,6.70
2023-02-07T22:54:20.014Z,6.50
2023-02-07T22:56:48.148Z,7.17
2023-02-07T22:59:16.212Z,7.20
2023-02-07T23:01:44.374Z,6.67
2023-02-07T23:04:15.375Z,6.60
2023-02-07T23:06:43.619Z,6.60
2023-02-07T23:09:12.765Z,6.83
2023-02-07T23:11:42.196Z,7.40
2023-02-07T23:14:10.224Z,7.00
2023-02-07T23:16:39.277Z,6.83
2023-02-07T23:19:09.181Z,7.20
2023-02-07T23:21:37.260Z,6.93
2023-02-07T23:24:05.542Z,6.80
2023-02-07T23:26:33.615Z,7.20
2023-02-07T23:29:03.073Z,7.00
2023-02-07T23:31:31.239Z,6.93
2023-02-07T23:33:59.363Z,6.33
2023-02-07T23:36:27.403Z,7.30
2023-02-07T23:38:55.456Z,7.27
2023-02-07T23:41:23.530Z,7.27
2023-02-07T23:43:51.602Z,6.90
2023-02-07T23:46:21.049Z,7.73
2023-02-07T23:48:49.101Z,7.30
2023-02-07T23:51:17.300Z,7.83
2023-02-07T23:53:45.365Z,7.10
2023-02-07T23:56:15.461Z,7.30
2023-02-07T23:58:44.901Z,6.43
